createdAt,value
2018-09-15T00:00:02.573Z,8.83
2018-09-15T00:02:30.993Z,8.50
2018-09-15T00:04:59.461Z,8.47
2018-09-15T00:07:27.871Z,9.13
2018-09-15T00:09:56.383Z,7.67
2018-09-15T00:12:24.847Z,8.23
2018-09-15T00:14:53.302Z,7.70
2018-09-15T00:17:21.760Z,7.80
2018-09-15T00:19:50.352Z,7.27
2018-09-15T00:22:18.801Z,7.03
2018-09-15T00:24:47.226Z,6.63
2018-09-15T00:27:15.690Z,7.10
2018-09-15T00:29:44.211Z,7.13
2018-09-15T00:32:12.784Z,7.63
2018-09-15T00:34:41.227Z,9.17
2018-09-15T00:37:09.792Z,7.17
2018-09-15T00:39:38.273Z,7.47
2018-09-15T00:42:06.781Z,6.77
2018-09-15T00:44:35.238Z,6.93
2018-09-15T00:47:03.665Z,6.90
2018-09-15T00:49:32.193Z,7.23
2018-09-15T00:52:00.620Z,6.47
2018-09-15T00:54:29.415Z,6.00
2018-09-15T00:56:57.998Z,6.23
2018-09-15T00:59:26.781Z,8.37
2018-09-15T01:01:55.192Z,6.03
2018-09-15T01:04:23.758Z,6.50
2018-09-15T01:06:52.211Z,6.13
2018-09-15T01:09:20.930Z,5.70
2018-09-15T01:11:49.355Z,6.93
2018-09-15T01:14:17.847Z,6.43
2018-09-15T01:16:46.507Z,6.00
2018-09-15T01:19:14.938Z,5.93
2018-09-15T01:21:43.498Z,6.03
2018-09-15T01:24:12.040Z,11.43
2018-09-15T01:26:40.454Z,6.57
2018-09-15T01:29:08.874Z,5.87
2018-09-15T01:31:37.345Z,5.77
2018-09-15T01:34:05.732Z,5.80
2018-09-15T01:36:34.435Z,6.23
2018-09-15T01:39:02.847Z,6.03
2018-09-15T01:41:31.451Z,6.93
2018-09-15T01:43:59.875Z,6.50
2018-09-15T01:46:28.307Z,7.73
2018-09-15T01:48:56.720Z,6.77
2018-09-15T01:51:25.204Z,7.33
2018-09-15T01:53:53.658Z,7.20
2018-09-15T01:56:22.254Z,8.10
2018-09-15T01:58:50.838Z,7.60
2018-09-15T02:01:19.274Z,6.53
2018-09-15T02:03:47.714Z,6.90
2018-09-15T02:06:16.942Z,6.70
2018-09-15T02:08:45.372Z,8.10
2018-09-15T02:11:13.790Z,6.67
2018-09-15T02:13:42.251Z,7.03
2018-09-15T02:16:10.703Z,8.43
2018-09-15T02:18:39.151Z,7.73
2018-09-15T02:21:07.555Z,7.50
2018-09-15T02:23:36.076Z,8.67
2018-09-15T02:26:04.517Z,8.97
2018-09-15T02:28:32.947Z,8.20
2018-09-15T02:31:01.383Z,8.40
2018-09-15T02:33:29.826Z,8.07
2018-09-15T02:35:58.247Z,8.73
2018-09-15T02:38:26.750Z,7.40
2018-09-15T02:40:55.218Z,8.97
2018-09-15T02:43:23.922Z,7.80
2018-09-15T02:45:52.326Z,7.83
2018-09-15T02:48:20.852Z,10.43
2018-09-15T02:50:49.407Z,9.63
2018-09-15T02:53:17.871Z,8.97
2018-09-15T02:55:46.376Z,8.83
2018-09-15T02:58:14.883Z,9.40
2018-09-15T03:00:43.365Z,9.10
2018-09-15T03:03:11.775Z,8.53
2018-09-15T03:05:40.227Z,10.40
2018-09-15T03:08:08.771Z,11.10
2018-09-15T03:10:37.395Z,10.57
2018-09-15T03:13:06.005Z,10.30
2018-09-15T03:15:34.446Z,9.03
2018-09-15T03:18:02.906Z,9.77
2018-09-15T03:20:31.335Z,9.20
2018-09-15T03:22:59.754Z,9.80
2018-09-15T03:25:28.205Z,10.00
2018-09-15T03:27:56.615Z,10.13
2018-09-15T03:30:25.109Z,10.17
2018-09-15T03:32:53.809Z,11.40
2018-09-15T03:35:22.291Z,10.10
2018-09-15T03:37:50.970Z,12.00
2018-09-15T03:40:19.557Z,10.60
2018-09-15T03:42:48.006Z,11.93
2018-09-15T03:45:16.495Z,12.83
2018-09-15T03:47:44.921Z,11.97
2018-09-15T03:50:13.346Z,14.40
2018-09-15T03:52:41.876Z,13.90
2018-09-15T03:55:10.349Z,12.50
2018-09-15T03:57:38.915Z,14.83
2018-09-15T04:00:07.404Z,15.97
2018-09-15T04:02:36.116Z,14.10
2018-09-15T04:05:04.633Z,13.47
2018-09-15T04:07:33.039Z,16.97
2018-09-15T04:10:01.690Z,16.13
2018-09-15T04:12:30.207Z,17.00
2018-09-15T04:14:58.702Z,19.40
2018-09-15T04:17:27.300Z,17.93
2018-09-15T04:19:56.076Z,16.83
2018-09-15T04:22:24.484Z,16.17
2018-09-15T04:24:52.913Z,17.57
2018-09-15T04:27:21.367Z,19.97
2018-09-15T04:29:49.874Z,21.53
2018-09-15T04:32:18.371Z,20.93
2018-09-15T04:34:46.817Z,19.23
2018-09-15T04:37:15.299Z,22.53
2018-09-15T04:39:43.747Z,20.70
2018-09-15T04:42:12.302Z,21.77
2018-09-15T04:44:40.729Z,23.30
2018-09-15T04:47:09.232Z,22.70
2018-09-15T04:49:37.718Z,19.93
2018-09-15T04:52:06.253Z,22.60
2018-09-15T04:54:34.813Z,24.43
2018-09-15T04:57:03.469Z,21.47
2018-09-15T04:59:32.081Z,25.53
2018-09-15T05:02:00.935Z,24.20
2018-09-15T05:04:29.463Z,30.33
2018-09-15T05:06:58.151Z,25.20
2018-09-15T05:09:26.590Z,26.43
2018-09-15T05:11:55.026Z,28.50
2018-09-15T05:14:23.541Z,25.70
2018-09-15T05:16:51.975Z,29.80
2018-09-15T05:19:20.588Z,27.50
2018-09-15T05:21:49.124Z,29.90
2018-09-15T05:24:17.631Z,33.63
2018-09-15T05:26:46.106Z,28.30
2018-09-15T05:29:14.556Z,33.43
2018-09-15T05:31:43.043Z,34.13
2018-09-15T05:34:11.678Z,32.23
2018-09-15T05:36:40.209Z,27.77
2018-09-15T05:39:10.710Z,32.03
2018-09-15T05:41:39.304Z,33.43
2018-09-15T05:44:07.763Z,36.40
2018-09-15T05:46:36.225Z,30.67
2018-09-15T05:49:04.812Z,33.30
2018-09-15T05:51:33.578Z,38.23
2018-09-15T05:54:02.090Z,38.43
2018-09-15T05:56:30.669Z,35.60
2018-09-15T05:58:59.351Z,31.60
2018-09-15T06:01:27.870Z,38.83
2018-09-15T06:03:56.524Z,40.50
2018-09-15T06:06:24.936Z,36.10
2018-09-15T06:08:53.414Z,38.93
2018-09-15T06:11:21.878Z,34.90
2018-09-15T06:13:50.416Z,42.40
2018-09-15T06:16:19.111Z,38.90
2018-09-15T06:18:47.579Z,37.83
2018-09-15T06:21:16.047Z,37.33
2018-09-15T06:23:44.499Z,38.87
2018-09-15T06:26:13.719Z,35.57
2018-09-15T06:28:42.513Z,37.43
2018-09-15T06:31:11.187Z,35.97
2018-09-15T06:33:39.646Z,33.33
2018-09-15T06:36:08.094Z,38.23
2018-09-15T06:38:36.578Z,37.27
2018-09-15T06:41:05.006Z,34.87
2018-09-15T06:43:33.485Z,34.30
2018-09-15T06:46:01.924Z,34.30
2018-09-15T06:48:30.473Z,36.23
2018-09-15T06:50:58.895Z,37.90
2018-09-15T06:53:27.475Z,37.87
2018-09-15T06:55:55.904Z,38.70
2018-09-15T06:58:24.357Z,35.53
2018-09-15T07:00:53.423Z,35.37
2018-09-15T07:03:21.979Z,40.60
2018-09-15T07:05:50.448Z,42.87
2018-09-15T07:08:18.858Z,35.03
2018-09-15T07:10:47.388Z,34.07
2018-09-15T07:13:15.793Z,32.77
2018-09-15T07:15:44.227Z,34.53
2018-09-15T07:18:12.649Z,35.30
2018-09-15T07:20:41.115Z,34.53
2018-09-15T07:23:09.531Z,31.77
2018-09-15T07:25:37.976Z,40.33
2018-09-15T07:28:06.836Z,33.90
2018-09-15T07:30:35.281Z,31.57
2018-09-15T07:33:03.784Z,37.47
2018-09-15T07:35:33.224Z,32.07
2018-09-15T07:38:01.708Z,30.27
2018-09-15T07:40:30.228Z,33.87
2018-09-15T07:42:59.056Z,29.27
2018-09-15T07:45:27.560Z,32.87
2018-09-15T07:47:56.036Z,33.27
2018-09-15T07:50:24.713Z,29.40
2018-09-15T07:52:53.133Z,31.87
2018-09-15T07:55:21.586Z,28.00
2018-09-15T07:57:50.110Z,29.23
2018-09-15T08:00:18.646Z,30.53
2018-09-15T08:02:47.098Z,27.47
2018-09-15T08:05:15.559Z,28.77
2018-09-15T08:07:44.150Z,31.80
2018-09-15T08:10:12.778Z,28.80
2018-09-15T08:12:41.213Z,28.27
2018-09-15T08:15:09.661Z,29.57
2018-09-15T08:17:38.108Z,27.87
2018-09-15T08:20:06.653Z,30.43
2018-09-15T08:22:35.087Z,29.03
2018-09-15T08:25:03.520Z,30.60
2018-09-15T08:27:32.027Z,34.53
2018-09-15T08:30:00.641Z,35.27
2018-09-15T08:32:29.109Z,31.73
2018-09-15T08:34:57.592Z,33.70
2018-09-15T08:37:26.014Z,29.03
2018-09-15T08:39:54.737Z,29.33
2018-09-15T08:42:23.128Z,27.90
2018-09-15T08:44:51.822Z,31.27
2018-09-15T08:47:20.286Z,28.93
2018-09-15T08:49:48.959Z,27.27
2018-09-15T08:52:17.407Z,26.67
2018-09-15T08:54:45.818Z,25.80
2018-09-15T08:57:14.253Z,26.20
2018-09-15T08:59:42.703Z,29.67
2018-09-15T09:02:13.658Z,28.00
2018-09-15T09:04:42.987Z,28.97
2018-09-15T09:07:11.762Z,25.50
2018-09-15T09:09:40.263Z,24.23
2018-09-15T09:12:09.027Z,24.70
2018-09-15T09:14:37.481Z,21.90
2018-09-15T09:17:06.123Z,21.10
2018-09-15T09:19:34.556Z,24.23
2018-09-15T09:22:03.138Z,23.00
2018-09-15T09:24:31.932Z,22.67
2018-09-15T09:27:00.390Z,23.53
2018-09-15T09:29:28.864Z,22.23
2018-09-15T09:31:57.534Z,23.83
2018-09-15T09:34:26.010Z,21.60
2018-09-15T09:36:54.555Z,24.00
2018-09-15T09:39:23.114Z,24.80
2018-09-15T09:41:51.746Z,24.03
2018-09-15T09:44:20.277Z,22.93
2018-09-15T09:46:48.869Z,24.97
2018-09-15T09:49:17.310Z,24.20
2018-09-15T09:51:45.811Z,22.23
2018-09-15T09:54:14.271Z,24.10
2018-09-15T09:56:42.854Z,26.20
2018-09-15T09:59:11.348Z,20.57
2018-09-15T10:01:45.353Z,22.63
2018-09-15T10:04:13.767Z,15.80
2018-09-15T10:06:42.275Z,22.97
2018-09-15T10:09:11.542Z,19.97
2018-09-15T10:11:41.385Z,19.77
2018-09-15T10:14:10.179Z,16.70
2018-09-15T10:16:38.958Z,16.40
2018-09-15T10:19:08.211Z,12.97
2018-09-15T10:21:36.759Z,14.40
2018-09-15T10:24:05.332Z,17.40
2018-09-15T10:26:33.806Z,16.67
2018-09-15T10:29:02.370Z,20.37
2018-09-15T10:31:30.808Z,14.90
2018-09-15T10:33:59.341Z,11.87
2018-09-15T10:36:27.749Z,12.70
2018-09-15T10:38:56.303Z,14.30
2018-09-15T10:41:24.760Z,11.27
2018-09-15T10:43:53.224Z,14.00
2018-09-15T10:46:21.755Z,10.90
2018-09-15T10:48:50.227Z,12.53
2018-09-15T10:51:18.813Z,11.07
2018-09-15T10:53:47.358Z,13.60
2018-09-15T10:56:15.979Z,14.80
2018-09-15T10:58:44.494Z,11.20
2018-09-15T11:01:12.918Z,17.60
2018-09-15T11:03:41.375Z,10.93
2018-09-15T11:06:09.994Z,10.93
2018-09-15T11:08:38.491Z,11.17
2018-09-15T11:11:06.922Z,10.53
2018-09-15T11:13:35.606Z,12.40
2018-09-15T11:16:04.420Z,11.83
2018-09-15T11:18:32.843Z,13.00
2018-09-15T11:21:01.261Z,12.33
2018-09-15T11:23:29.810Z,11.47
2018-09-15T11:25:58.264Z,13.60
2018-09-15T11:28:26.783Z,13.50
2018-09-15T11:30:55.539Z,15.80
2018-09-15T11:33:24.222Z,13.77
2018-09-15T11:35:52.664Z,13.27
2018-09-15T11:38:21.203Z,16.23
2018-09-15T11:40:49.733Z,13.30
2018-09-15T11:43:18.219Z,14.10
2018-09-15T11:45:46.767Z,16.23
2018-09-15T11:48:15.277Z,23.77
2018-09-15T11:50:43.808Z,14.93
2018-09-15T11:53:12.483Z,15.80
2018-09-15T11:55:40.982Z,14.50
2018-09-15T11:58:09.650Z,14.53
2018-09-15T12:00:40.029Z,16.63
2018-09-15T12:03:08.591Z,13.67
2018-09-15T12:05:37.078Z,12.50
2018-09-15T12:08:05.719Z,14.27
2018-09-15T12:10:34.298Z,12.37
2018-09-15T12:13:02.768Z,10.87
2018-09-15T12:15:31.277Z,10.90
2018-09-15T12:18:00.002Z,11.10
2018-09-15T12:20:28.421Z,9.90
2018-09-15T12:22:56.871Z,9.40
2018-09-15T12:25:25.360Z,10.40
2018-09-15T12:27:54.210Z,10.67
2018-09-15T12:30:22.823Z,9.37
2018-09-15T12:32:51.392Z,10.60
2018-09-15T12:35:19.914Z,9.07
2018-09-15T12:37:48.515Z,7.57
2018-09-15T12:40:17.166Z,11.47
2018-09-15T12:42:45.610Z,11.57
2018-09-15T12:45:14.132Z,10.53
2018-09-15T12:47:42.948Z,10.50
2018-09-15T12:50:11.432Z,11.43
2018-09-15T12:52:39.949Z,14.10
2018-09-15T12:55:08.633Z,10.33
2018-09-15T12:57:37.103Z,11.37
2018-09-15T13:00:05.877Z,8.50
2018-09-15T13:02:34.561Z,11.83
2018-09-15T13:05:03.031Z,8.73
2018-09-15T13:07:31.751Z,10.97
2018-09-15T13:10:00.209Z,10.40
2018-09-15T13:12:28.655Z,9.17
2018-09-15T13:14:57.142Z,10.70
2018-09-15T13:17:26.928Z,9.17
2018-09-15T13:19:57.867Z,9.40
2018-09-15T13:22:26.312Z,7.53
2018-09-15T13:24:54.921Z,6.93
2018-09-15T13:27:24.412Z,7.37
2018-09-15T13:29:53.077Z,6.27
2018-09-15T13:32:21.664Z,6.97
2018-09-15T13:34:50.254Z,7.97
2018-09-15T13:37:18.779Z,8.07
2018-09-15T13:39:47.244Z,8.20
2018-09-15T13:42:15.747Z,7.83
2018-09-15T13:45:05.275Z,10.27
2018-09-15T13:47:33.874Z,8.17
2018-09-15T13:50:02.344Z,10.63
2018-09-15T13:52:30.764Z,8.00
2018-09-15T13:54:59.212Z,9.17
2018-09-15T13:57:27.728Z,8.03
2018-09-15T13:59:56.187Z,9.63
2018-09-15T14:02:24.838Z,8.43
2018-09-15T14:04:53.516Z,7.53
2018-09-15T14:07:22.043Z,8.63
2018-09-15T14:09:50.573Z,11.23
2018-09-15T14:12:19.037Z,8.53
2018-09-15T14:14:47.663Z,11.87
2018-09-15T14:17:16.296Z,8.43
2018-09-15T14:19:45.034Z,10.23
2018-09-15T14:22:13.524Z,7.93
2018-09-15T14:24:42.227Z,8.00
2018-09-15T14:27:10.761Z,7.60
2018-09-15T14:29:39.179Z,8.30
2018-09-15T14:32:07.744Z,8.63
2018-09-15T14:34:36.332Z,12.33
2018-09-15T14:37:05.103Z,9.00
2018-09-15T14:39:33.535Z,9.27
2018-09-15T14:42:02.097Z,9.30
2018-09-15T14:44:31.346Z,9.30
2018-09-15T14:47:00.467Z,8.50
2018-09-15T14:49:29.544Z,7.47
2018-09-15T14:51:58.710Z,8.18
2018-09-15T14:54:27.714Z,8.00
2018-09-15T14:56:56.664Z,7.95
2018-09-15T14:59:25.693Z,6.72
2018-09-15T15:01:54.942Z,6.08
2018-09-15T15:04:24.036Z,6.67
2018-09-15T15:06:53.120Z,5.55
2018-09-15T15:09:22.129Z,6.30
2018-09-15T15:11:51.135Z,6.78
2018-09-15T15:14:20.125Z,6.30
2018-09-15T15:16:49.188Z,6.30
2018-09-15T15:19:18.399Z,6.50
2018-09-15T15:21:47.552Z,6.78
2018-09-15T15:24:16.579Z,5.47
2018-09-15T15:26:45.648Z,6.42
2018-09-15T15:29:14.721Z,9.10
2018-09-15T15:31:43.762Z,6.28
2018-09-15T15:34:12.995Z,6.45
2018-09-15T15:36:42.059Z,6.12
2018-09-15T15:39:11.120Z,6.67
2018-09-15T15:41:40.244Z,5.87
2018-09-15T15:44:08.684Z,7.57
2018-09-15T15:46:37.743Z,5.80
2018-09-15T15:49:06.763Z,8.53
2018-09-15T15:51:35.258Z,7.07
2018-09-15T15:54:04.406Z,8.20
2018-09-15T15:56:33.414Z,7.97
2018-09-15T15:59:02.431Z,9.73
2018-09-15T16:01:31.172Z,9.53
2018-09-15T16:04:00.289Z,11.12
2018-09-15T16:06:28.790Z,8.68
2018-09-15T16:08:57.201Z,7.30
2018-09-15T16:13:49.868Z,8.67
2018-09-15T16:16:18.489Z,6.63
2018-09-15T16:18:47.009Z,9.13
2018-09-15T16:21:15.739Z,9.47
2018-09-15T16:23:44.327Z,7.57
2018-09-15T16:26:12.806Z,8.17
2018-09-15T16:28:41.248Z,7.73
2018-09-15T16:31:09.648Z,5.97
2018-09-15T16:33:38.224Z,7.53
2018-09-15T16:36:06.699Z,7.40
2018-09-15T16:38:35.116Z,7.50
2018-09-15T16:41:03.552Z,6.63
2018-09-15T16:43:32.176Z,8.67
2018-09-15T16:46:00.647Z,6.63
2018-09-15T16:48:29.206Z,6.80
2018-09-15T16:50:57.614Z,4.80
2018-09-15T16:53:26.060Z,5.33
2018-09-15T16:55:54.531Z,9.67
2018-09-15T16:58:23.146Z,42.10
2018-09-15T17:00:51.707Z,9.70
2018-09-15T17:03:20.266Z,12.03
2018-09-15T17:05:49.041Z,9.80
2018-09-15T17:08:17.565Z,6.00
2018-09-15T17:10:46.137Z,6.87
2018-09-15T17:13:14.681Z,7.37
2018-09-15T17:15:43.184Z,6.13
2018-09-15T17:18:11.681Z,7.00
2018-09-15T17:20:40.217Z,6.20
2018-09-15T17:23:08.727Z,6.53
2018-09-15T17:25:37.255Z,5.93
2018-09-15T17:28:05.869Z,5.60
2018-09-15T17:30:34.425Z,5.83
2018-09-15T17:33:03.134Z,6.30
2018-09-15T17:35:31.708Z,8.43
2018-09-15T17:38:00.358Z,9.17
2018-09-15T17:40:29.070Z,7.47
2018-09-15T17:42:57.514Z,6.73
2018-09-15T17:45:31.912Z,8.80
2018-09-15T17:48:00.506Z,11.03
2018-09-15T17:50:29.159Z,8.83
2018-09-15T17:52:57.722Z,21.00
2018-09-15T17:55:26.310Z,16.33
2018-09-15T17:57:54.810Z,19.13
2018-09-15T18:00:23.408Z,15.73
2018-09-15T18:02:51.952Z,12.17
2018-09-15T18:05:20.474Z,7.93
2018-09-15T18:07:49.029Z,10.77
2018-09-15T18:10:17.598Z,9.77
2018-09-15T18:12:46.616Z,7.10
2018-09-15T18:15:15.113Z,6.83
2018-09-15T18:17:43.835Z,6.47
2018-09-15T18:20:12.408Z,8.10
2018-09-15T18:22:40.948Z,14.23
2018-09-15T18:25:09.502Z,14.27
2018-09-15T18:27:38.037Z,12.30
2018-09-15T18:30:06.914Z,16.07
2018-09-15T18:32:36.137Z,11.27
2018-09-15T18:35:04.897Z,10.27
2018-09-15T18:37:33.387Z,9.03
2018-09-15T18:40:08.324Z,11.17
2018-09-15T18:42:36.818Z,11.53
2018-09-15T18:45:06.328Z,10.87
2018-09-15T18:47:34.857Z,10.47
2018-09-15T18:50:03.317Z,11.00
2018-09-15T18:52:32.098Z,13.77
2018-09-15T18:55:00.943Z,8.40
2018-09-15T18:57:29.477Z,10.70
2018-09-15T18:59:58.045Z,11.20
2018-09-15T19:02:26.525Z,8.07
2018-09-15T19:04:55.258Z,8.83
2018-09-15T19:07:23.755Z,8.73
2018-09-15T19:09:52.364Z,7.87
2018-09-15T19:12:20.974Z,13.47
2018-09-15T19:14:49.541Z,23.47
2018-09-15T19:17:18.370Z,12.07
2018-09-15T19:19:46.931Z,10.83
2018-09-15T19:22:15.440Z,9.57
2018-09-15T19:24:44.000Z,7.93
2018-09-15T19:27:12.598Z,10.10
2018-09-15T19:29:41.203Z,14.33
2018-09-15T19:32:09.755Z,14.67
2018-09-15T19:34:38.710Z,21.33
2018-09-15T19:37:07.189Z,12.37
2018-09-15T19:39:36.241Z,24.07
2018-09-15T19:42:04.734Z,12.90
2018-09-15T19:44:33.228Z,8.53
2018-09-15T19:47:01.920Z,8.20
2018-09-15T19:49:30.457Z,9.63
2018-09-15T19:51:58.982Z,9.13
2018-09-15T19:54:27.554Z,10.30
2018-09-15T19:56:56.197Z,28.40
2018-09-15T19:59:24.686Z,14.40
2018-09-15T20:01:53.291Z,14.13
2018-09-15T20:04:21.751Z,22.50
2018-09-15T20:06:50.278Z,12.40
2018-09-15T20:09:18.760Z,19.80
2018-09-15T20:11:47.269Z,13.43
2018-09-15T20:14:15.911Z,11.40
2018-09-15T20:16:43.296Z,12.17
2018-09-15T20:19:10.863Z,13.00
2018-09-15T20:21:39.728Z,12.07
2018-09-15T20:24:08.168Z,11.77
2018-09-15T20:26:36.771Z,11.10
2018-09-15T20:29:05.310Z,10.17
2018-09-15T20:31:33.860Z,11.87
2018-09-15T20:34:02.349Z,11.47
2018-09-15T20:36:30.989Z,11.73
2018-09-15T20:38:59.595Z,10.23
2018-09-15T20:41:28.090Z,11.07
2018-09-15T20:43:56.654Z,13.77
2018-09-15T20:46:26.137Z,12.23
2018-09-15T20:48:54.641Z,11.50
2018-09-15T20:51:23.290Z,20.13
2018-09-15T20:53:51.804Z,18.50
2018-09-15T20:56:20.291Z,20.57
2018-09-15T20:58:48.740Z,16.83
2018-09-15T21:01:17.323Z,14.57
2018-09-15T21:03:45.770Z,18.63
2018-09-15T21:06:14.410Z,13.93
2018-09-15T21:08:42.844Z,15.07
2018-09-15T21:11:11.367Z,13.10
2018-09-15T21:13:39.823Z,14.53
2018-09-15T21:16:08.467Z,12.77
2018-09-15T21:18:36.902Z,15.23
2018-09-15T21:21:05.709Z,13.73
2018-09-15T21:23:34.183Z,12.77
2018-09-15T21:26:02.686Z,16.83
2018-09-15T21:28:31.670Z,11.97
2018-09-15T21:31:00.484Z,12.80
2018-09-15T21:33:30.549Z,13.77
2018-09-15T21:35:59.065Z,12.03
2018-09-15T21:38:27.553Z,13.13
2018-09-15T21:40:56.018Z,11.87
2018-09-15T21:43:24.461Z,14.27
2018-09-15T21:45:52.936Z,13.60
2018-09-15T21:48:21.357Z,12.73
2018-09-15T21:50:49.947Z,12.97
2018-09-15T21:53:18.426Z,16.07
2018-09-15T21:55:46.943Z,18.07
2018-09-15T21:58:15.354Z,15.63
2018-09-15T22:00:44.426Z,18.33
2018-09-15T22:03:13.027Z,14.90
2018-09-15T22:05:41.808Z,24.17
2018-09-15T22:08:10.274Z,20.50
2018-09-15T22:10:38.904Z,19.37
2018-09-15T22:13:07.278Z,15.13
2018-09-15T22:15:35.832Z,16.63
2018-09-15T22:18:04.253Z,13.77
2018-09-15T22:20:33.060Z,12.70
2018-09-15T22:23:01.448Z,13.87
2018-09-15T22:25:29.983Z,12.63
2018-09-15T22:27:58.487Z,13.27
2018-09-15T22:30:26.894Z,12.70
2018-09-15T22:32:55.358Z,13.37
2018-09-15T22:35:23.882Z,21.20
2018-09-15T22:37:52.606Z,21.30
2018-09-15T22:40:21.179Z,19.60
2018-09-15T22:42:49.644Z,24.00
2018-09-15T22:45:18.210Z,24.10
2018-09-15T22:47:46.656Z,21.63
2018-09-15T22:50:15.235Z,18.37
2018-09-15T22:52:43.788Z,15.63
2018-09-15T22:55:12.252Z,17.60
2018-09-15T22:57:40.709Z,14.80
2018-09-15T23:00:09.239Z,13.70
2018-09-15T23:02:37.699Z,15.37
2018-09-15T23:05:06.378Z,15.37
2018-09-15T23:07:34.771Z,14.33
2018-09-15T23:10:03.255Z,15.83
2018-09-15T23:12:31.734Z,13.33
2018-09-15T23:15:00.302Z,17.93
2018-09-15T23:17:28.786Z,14.53
2018-09-15T23:19:57.436Z,14.00
2018-09-15T23:22:25.950Z,13.70
2018-09-15T23:24:54.617Z,14.07
2018-09-15T23:27:23.087Z,16.37
2018-09-15T23:29:51.663Z,14.73
2018-09-15T23:32:20.175Z,17.27
2018-09-15T23:34:48.987Z,13.13
2018-09-15T23:37:17.418Z,13.03
2018-09-15T23:39:45.966Z,12.33
2018-09-15T23:42:14.542Z,14.13
2018-09-15T23:44:43.019Z,14.83
2018-09-15T23:47:11.420Z,12.20
2018-09-15T23:49:39.865Z,11.87
2018-09-15T23:52:08.381Z,10.87
2018-09-15T23:54:36.869Z,11.47
2018-09-15T23:57:05.289Z,11.70
2018-09-15T23:59:33.728Z,12.13
